sensor_id;sensor_type;location;lat;lon;timestamp;P1;durP1;ratioP1;P2;durP2;ratioP2
76667;SDS011;65585;51.166;16.922;2023-06-22T00:01:11;14.18;;;12.68;;
76667;SDS011;65585;51.166;16.922;2023-06-22T00:03:40;17.30;;;12.50;;
76667;SDS011;65585;51.166;16.922;2023-06-22T00:06:06;14.90;;;13.27;;
76667;SDS011;65585;51.166;16.922;2023-06-22T00:08:32;15.35;;;13.50;;
76667;SDS011;65585;51.166;16.922;2023-06-22T00:10:59;15.77;;;13.60;;
76667;SDS011;65585;51.166;16.922;2023-06-22T00:13:25;18.25;;;14.45;;
76667;SDS011;65585;51.166;16.922;2023-06-22T00:15:51;14.93;;;13.00;;
76667;SDS011;65585;51.166;16.922;2023-06-22T00:18:18;14.05;;;12.40;;
76667;SDS011;65585;51.166;16.922;2023-06-22T00:20:44;14.75;;;13.25;;
76667;SDS011;65585;51.166;16.922;2023-06-22T00:23:11;22.45;;;14.32;;
76667;SDS011;65585;51.166;16.922;2023-06-22T00:25:40;15.52;;;12.73;;
76667;SDS011;65585;51.166;16.922;2023-06-22T00:28:06;19.02;;;15.32;;
76667;SDS011;65585;51.166;16.922;2023-06-22T00:30:33;17.75;;;15.20;;
76667;SDS011;65585;51.166;16.922;2023-06-22T00:32:59;19.23;;;15.65;;
76667;SDS011;65585;51.166;16.922;2023-06-22T00:35:26;20.83;;;14.43;;
76667;SDS011;65585;51.166;16.922;2023-06-22T00:37:58;16.15;;;14.43;;
76667;SDS011;65585;51.166;16.922;2023-06-22T00:40:30;18.33;;;15.10;;
76667;SDS011;65585;51.166;16.922;2023-06-22T00:42:57;16.75;;;15.05;;
76667;SDS011;65585;51.166;16.922;2023-06-22T00:45:23;17.05;;;15.25;;
76667;SDS011;65585;51.166;16.922;2023-06-22T00:47:50;17.63;;;15.52;;
76667;SDS011;65585;51.166;16.922;2023-06-22T00:50:21;17.27;;;15.00;;
76667;SDS011;65585;51.166;16.922;2023-06-22T00:52:50;16.50;;;14.07;;
76667;SDS011;65585;51.166;16.922;2023-06-22T00:55:21;18.13;;;14.10;;
76667;SDS011;65585;51.166;16.922;2023-06-22T00:57:48;17.38;;;15.02;;
76667;SDS011;65585;51.166;16.922;2023-06-22T01:00:15;17.00;;;14.27;;
76667;SDS011;65585;51.166;16.922;2023-06-22T01:02:43;19.40;;;15.77;;
76667;SDS011;65585;51.166;16.922;2023-06-22T01:05:14;17.48;;;15.65;;
76667;SDS011;65585;51.166;16.922;2023-06-22T01:10:22;20.30;;;17.08;;
76667;SDS011;65585;51.166;16.922;2023-06-22T01:12:54;17.08;;;14.65;;
76667;SDS011;65585;51.166;16.922;2023-06-22T01:15:35;18.85;;;14.50;;
76667;SDS011;65585;51.166;16.922;2023-06-22T01:18:05;22.77;;;17.45;;
76667;SDS011;65585;51.166;16.922;2023-06-22T01:20:34;20.20;;;17.08;;
76667;SDS011;65585;51.166;16.922;2023-06-22T01:25:33;18.15;;;15.77;;
76667;SDS011;65585;51.166;16.922;2023-06-22T01:30:58;18.67;;;16.73;;
76667;SDS011;65585;51.166;16.922;2023-06-22T01:35:59;18.63;;;15.38;;
76667;SDS011;65585;51.166;16.922;2023-06-22T01:38:26;18.58;;;16.38;;
76667;SDS011;65585;51.166;16.922;2023-06-22T01:40:54;19.45;;;16.95;;
76667;SDS011;65585;51.166;16.922;2023-06-22T01:43:21;18.38;;;16.42;;
76667;SDS011;65585;51.166;16.922;2023-06-22T01:45:49;17.65;;;15.35;;
76667;SDS011;65585;51.166;16.922;2023-06-22T01:48:16;20.50;;;16.63;;
76667;SDS011;65585;51.166;16.922;2023-06-22T01:50:43;19.23;;;16.45;;
76667;SDS011;65585;51.166;16.922;2023-06-22T01:53:10;20.40;;;18.20;;
76667;SDS011;65585;51.166;16.922;2023-06-22T01:55:37;20.35;;;16.73;;
76667;SDS011;65585;51.166;16.922;2023-06-22T01:58:03;18.55;;;16.25;;
76667;SDS011;65585;51.166;16.922;2023-06-22T02:00:31;17.73;;;15.38;;
76667;SDS011;65585;51.166;16.922;2023-06-22T02:05:28;19.33;;;16.75;;
76667;SDS011;65585;51.166;16.922;2023-06-22T02:08:04;16.73;;;15.02;;
76667;SDS011;65585;51.166;16.922;2023-06-22T02:10:38;21.27;;;16.23;;
76667;SDS011;65585;51.166;16.922;2023-06-22T02:13:06;17.17;;;15.38;;
76667;SDS011;65585;51.166;16.922;2023-06-22T02:15:34;18.00;;;16.00;;
76667;SDS011;65585;51.166;16.922;2023-06-22T02:18:01;21.55;;;16.55;;
76667;SDS011;65585;51.166;16.922;2023-06-22T02:20:28;26.02;;;19.63;;
76667;SDS011;65585;51.166;16.922;2023-06-22T02:22:54;23.23;;;20.42;;
76667;SDS011;65585;51.166;16.922;2023-06-22T02:25:21;24.58;;;19.65;;
76667;SDS011;65585;51.166;16.922;2023-06-22T02:27:48;22.13;;;18.65;;
76667;SDS011;65585;51.166;16.922;2023-06-22T02:30:14;19.33;;;16.48;;
76667;SDS011;65585;51.166;16.922;2023-06-22T02:32:41;20.88;;;17.08;;
76667;SDS011;65585;51.166;16.922;2023-06-22T02:35:10;24.70;;;19.95;;
76667;SDS011;65585;51.166;16.922;2023-06-22T02:37:36;22.40;;;19.50;;
76667;SDS011;65585;51.166;16.922;2023-06-22T02:40:09;24.67;;;20.10;;
76667;SDS011;65585;51.166;16.922;2023-06-22T02:42:36;27.13;;;20.42;;
76667;SDS011;65585;51.166;16.922;2023-06-22T02:45:03;22.25;;;19.15;;
76667;SDS011;65585;51.166;16.922;2023-06-22T02:47:31;23.63;;;19.73;;
76667;SDS011;65585;51.166;16.922;2023-06-22T02:50:03;24.35;;;20.60;;
76667;SDS011;65585;51.166;16.922;2023-06-22T02:52:29;23.10;;;18.38;;
76667;SDS011;65585;51.166;16.922;2023-06-22T02:54:55;24.13;;;19.40;;
76667;SDS011;65585;51.166;16.922;2023-06-22T02:57:22;23.30;;;18.45;;
76667;SDS011;65585;51.166;16.922;2023-06-22T02:59:50;24.13;;;18.45;;
76667;SDS011;65585;51.166;16.922;2023-06-22T03:02:16;22.70;;;17.17;;
76667;SDS011;65585;51.166;16.922;2023-06-22T03:07:09;20.60;;;17.98;;
76667;SDS011;65585;51.166;16.922;2023-06-22T03:09:35;24.17;;;18.55;;
76667;SDS011;65585;51.166;16.922;2023-06-22T03:12:01;27.25;;;19.52;;
76667;SDS011;65585;51.166;16.922;2023-06-22T03:14:28;22.45;;;20.02;;
76667;SDS011;65585;51.166;16.922;2023-06-22T03:16:54;25.48;;;21.27;;
76667;SDS011;65585;51.166;16.922;2023-06-22T03:19:20;24.60;;;19.80;;
76667;SDS011;65585;51.166;16.922;2023-06-22T03:21:47;23.13;;;19.50;;
76667;SDS011;65585;51.166;16.922;2023-06-22T03:24:13;25.65;;;18.55;;
76667;SDS011;65585;51.166;16.922;2023-06-22T03:26:39;21.85;;;18.80;;
76667;SDS011;65585;51.166;16.922;2023-06-22T03:29:05;23.15;;;19.25;;
76667;SDS011;65585;51.166;16.922;2023-06-22T03:31:31;20.58;;;18.13;;
76667;SDS011;65585;51.166;16.922;2023-06-22T03:33:58;22.58;;;19.02;;
76667;SDS011;65585;51.166;16.922;2023-06-22T03:36:23;22.05;;;18.52;;
76667;SDS011;65585;51.166;16.922;2023-06-22T03:38:50;22.05;;;18.08;;
76667;SDS011;65585;51.166;16.922;2023-06-22T03:41:16;22.98;;;19.98;;
76667;SDS011;65585;51.166;16.922;2023-06-22T03:43:43;25.67;;;20.30;;
76667;SDS011;65585;51.166;16.922;2023-06-22T03:46:09;24.23;;;19.63;;
76667;SDS011;65585;51.166;16.922;2023-06-22T03:48:36;23.80;;;18.40;;
76667;SDS011;65585;51.166;16.922;2023-06-22T03:51:02;23.50;;;19.83;;
76667;SDS011;65585;51.166;16.922;2023-06-22T03:53:29;27.10;;;21.30;;
76667;SDS011;65585;51.166;16.922;2023-06-22T03:55:55;25.00;;;20.92;;
76667;SDS011;65585;51.166;16.922;2023-06-22T03:58:22;25.13;;;21.08;;
76667;SDS011;65585;51.166;16.922;2023-06-22T04:00:51;24.75;;;22.10;;
76667;SDS011;65585;51.166;16.922;2023-06-22T04:03:18;23.92;;;17.77;;
76667;SDS011;65585;51.166;16.922;2023-06-22T04:05:45;23.40;;;17.98;;
76667;SDS011;65585;51.166;16.922;2023-06-22T04:08:12;23.13;;;18.63;;
76667;SDS011;65585;51.166;16.922;2023-06-22T04:10:38;25.15;;;20.73;;
76667;SDS011;65585;51.166;16.922;2023-06-22T04:13:05;24.25;;;19.58;;
76667;SDS011;65585;51.166;16.922;2023-06-22T04:15:31;26.88;;;20.70;;
76667;SDS011;65585;51.166;16.922;2023-06-22T04:17:57;25.38;;;19.50;;
76667;SDS011;65585;51.166;16.922;2023-06-22T04:20:24;24.92;;;20.10;;
76667;SDS011;65585;51.166;16.922;2023-06-22T04:22:53;23.33;;;19.95;;
76667;SDS011;65585;51.166;16.922;2023-06-22T04:25:19;23.92;;;19.30;;
76667;SDS011;65585;51.166;16.922;2023-06-22T04:27:47;23.38;;;20.88;;
76667;SDS011;65585;51.166;16.922;2023-06-22T04:30:13;24.67;;;20.08;;
76667;SDS011;65585;51.166;16.922;2023-06-22T04:32:42;22.35;;;19.40;;
76667;SDS011;65585;51.166;16.922;2023-06-22T04:35:09;23.45;;;20.73;;
76667;SDS011;65585;51.166;16.922;2023-06-22T04:37:36;21.23;;;18.75;;
76667;SDS011;65585;51.166;16.922;2023-06-22T04:40:04;24.77;;;20.73;;
76667;SDS011;65585;51.166;16.922;2023-06-22T04:42:33;26.85;;;20.90;;
76667;SDS011;65585;51.166;16.922;2023-06-22T04:45:00;21.95;;;19.00;;
76667;SDS011;65585;51.166;16.922;2023-06-22T04:47:27;24.65;;;19.80;;
76667;SDS011;65585;51.166;16.922;2023-06-22T04:49:53;20.75;;;18.45;;
76667;SDS011;65585;51.166;16.922;2023-06-22T04:52:20;21.35;;;18.50;;
76667;SDS011;65585;51.166;16.922;2023-06-22T04:54:46;22.38;;;18.77;;
76667;SDS011;65585;51.166;16.922;2023-06-22T04:57:17;25.83;;;20.00;;
76667;SDS011;65585;51.166;16.922;2023-06-22T04:59:43;21.35;;;19.05;;
76667;SDS011;65585;51.166;16.922;2023-06-22T05:04:36;22.60;;;19.10;;
76667;SDS011;65585;51.166;16.922;2023-06-22T05:07:04;21.13;;;18.13;;
76667;SDS011;65585;51.166;16.922;2023-06-22T05:09:31;21.75;;;18.98;;
76667;SDS011;65585;51.166;16.922;2023-06-22T05:11:59;22.33;;;18.92;;
76667;SDS011;65585;51.166;16.922;2023-06-22T05:14:28;22.25;;;20.00;;
76667;SDS011;65585;51.166;16.922;2023-06-22T05:16:56;27.08;;;22.10;;
76667;SDS011;65585;51.166;16.922;2023-06-22T05:19:25;24.90;;;21.27;;
76667;SDS011;65585;51.166;16.922;2023-06-22T05:21:57;24.75;;;21.48;;
76667;SDS011;65585;51.166;16.922;2023-06-22T05:24:23;22.90;;;19.60;;
76667;SDS011;65585;51.166;16.922;2023-06-22T05:26:49;22.60;;;19.17;;
76667;SDS011;65585;51.166;16.922;2023-06-22T05:29:15;23.90;;;20.92;;
76667;SDS011;65585;51.166;16.922;2023-06-22T05:31:42;22.60;;;20.15;;
76667;SDS011;65585;51.166;16.922;2023-06-22T05:34:08;24.15;;;21.42;;
76667;SDS011;65585;51.166;16.922;2023-06-22T05:36:34;23.20;;;20.73;;
76667;SDS011;65585;51.166;16.922;2023-06-22T05:39:10;22.63;;;19.80;;
76667;SDS011;65585;51.166;16.922;2023-06-22T05:41:38;21.52;;;19.23;;
76667;SDS011;65585;51.166;16.922;2023-06-22T05:44:04;20.55;;;18.15;;
76667;SDS011;65585;51.166;16.922;2023-06-22T05:46:31;22.48;;;19.40;;
76667;SDS011;65585;51.166;16.922;2023-06-22T05:48:57;21.60;;;18.95;;
76667;SDS011;65585;51.166;16.922;2023-06-22T05:51:24;19.77;;;16.10;;
76667;SDS011;65585;51.166;16.922;2023-06-22T05:53:50;19.60;;;16.80;;
76667;SDS011;65585;51.166;16.922;2023-06-22T05:56:16;20.00;;;15.50;;
76667;SDS011;65585;51.166;16.922;2023-06-22T05:58:42;17.83;;;15.20;;
76667;SDS011;65585;51.166;16.922;2023-06-22T06:01:09;16.55;;;14.73;;
76667;SDS011;65585;51.166;16.922;2023-06-22T06:03:35;16.15;;;13.93;;
76667;SDS011;65585;51.166;16.922;2023-06-22T06:06:07;19.60;;;14.68;;
76667;SDS011;65585;51.166;16.922;2023-06-22T06:08:33;17.02;;;14.70;;
76667;SDS011;65585;51.166;16.922;2023-06-22T06:11:00;16.35;;;12.90;;
76667;SDS011;65585;51.166;16.922;2023-06-22T06:13:26;16.05;;;14.05;;
76667;SDS011;65585;51.166;16.922;2023-06-22T06:15:52;17.60;;;13.35;;
76667;SDS011;65585;51.166;16.922;2023-06-22T06:18:20;17.70;;;13.27;;
76667;SDS011;65585;51.166;16.922;2023-06-22T06:20:47;14.63;;;13.07;;
76667;SDS011;65585;51.166;16.922;2023-06-22T06:23:13;20.38;;;12.35;;
76667;SDS011;65585;51.166;16.922;2023-06-22T06:25:40;15.77;;;12.40;;
76667;SDS011;65585;51.166;16.922;2023-06-22T06:28:06;13.48;;;12.05;;
76667;SDS011;65585;51.166;16.922;2023-06-22T06:30:32;14.32;;;12.82;;
76667;SDS011;65585;51.166;16.922;2023-06-22T06:32:58;14.85;;;11.75;;
76667;SDS011;65585;51.166;16.922;2023-06-22T06:35:25;14.52;;;12.50;;
76667;SDS011;65585;51.166;16.922;2023-06-22T06:37:51;12.75;;;11.43;;
76667;SDS011;65585;51.166;16.922;2023-06-22T06:40:19;12.98;;;10.75;;
76667;SDS011;65585;51.166;16.922;2023-06-22T06:42:46;12.40;;;11.10;;
76667;SDS011;65585;51.166;16.922;2023-06-22T06:45:22;13.02;;;11.10;;
76667;SDS011;65585;51.166;16.922;2023-06-22T06:47:49;12.63;;;10.73;;
76667;SDS011;65585;51.166;16.922;2023-06-22T06:52:42;11.95;;;10.70;;
76667;SDS011;65585;51.166;16.922;2023-06-22T06:55:09;11.65;;;9.30;;
76667;SDS011;65585;51.166;16.922;2023-06-22T06:57:39;11.27;;;9.35;;
76667;SDS011;65585;51.166;16.922;2023-06-22T07:00:06;12.13;;;10.77;;
76667;SDS011;65585;51.166;16.922;2023-06-22T07:02:40;12.00;;;10.70;;
76667;SDS011;65585;51.166;16.922;2023-06-22T07:07:36;12.35;;;11.02;;
76667;SDS011;65585;51.166;16.922;2023-06-22T07:10:03;12.75;;;11.18;;
76667;SDS011;65585;51.166;16.922;2023-06-22T07:12:30;13.88;;;11.50;;
76667;SDS011;65585;51.166;16.922;2023-06-22T07:15:07;13.32;;;11.57;;
76667;SDS011;65585;51.166;16.922;2023-06-22T07:17:34;13.60;;;12.15;;
76667;SDS011;65585;51.166;16.922;2023-06-22T07:20:01;13.70;;;12.18;;
76667;SDS011;65585;51.166;16.922;2023-06-22T07:22:33;15.32;;;13.73;;
76667;SDS011;65585;51.166;16.922;2023-06-22T07:25:00;13.68;;;12.27;;
76667;SDS011;65585;51.166;16.922;2023-06-22T07:27:26;14.60;;;12.73;;
76667;SDS011;65585;51.166;16.922;2023-06-22T07:29:52;15.65;;;12.95;;
76667;SDS011;65585;51.166;16.922;2023-06-22T07:32:20;13.82;;;12.27;;
76667;SDS011;65585;51.166;16.922;2023-06-22T07:34:46;14.57;;;13.07;;
76667;SDS011;65585;51.166;16.922;2023-06-22T07:37:12;15.20;;;13.60;;
76667;SDS011;65585;51.166;16.922;2023-06-22T07:39:38;14.82;;;13.23;;
76667;SDS011;65585;51.166;16.922;2023-06-22T07:42:04;24.23;;;15.35;;
76667;SDS011;65585;51.166;16.922;2023-06-22T07:44:31;14.75;;;13.07;;
76667;SDS011;65585;51.166;16.922;2023-06-22T07:46:57;13.88;;;12.40;;
76667;SDS011;65585;51.166;16.922;2023-06-22T07:49:23;15.15;;;13.52;;
76667;SDS011;65585;51.166;16.922;2023-06-22T07:51:49;16.27;;;13.88;;
76667;SDS011;65585;51.166;16.922;2023-06-22T07:54:15;15.23;;;13.48;;
76667;SDS011;65585;51.166;16.922;2023-06-22T07:56:42;13.90;;;12.50;;
76667;SDS011;65585;51.166;16.922;2023-06-22T07:59:09;17.23;;;12.25;;
76667;SDS011;65585;51.166;16.922;2023-06-22T08:01:34;13.23;;;11.82;;
76667;SDS011;65585;51.166;16.922;2023-06-22T08:04:01;13.32;;;12.07;;
76667;SDS011;65585;51.166;16.922;2023-06-22T08:06:29;13.20;;;11.90;;
76667;SDS011;65585;51.166;16.922;2023-06-22T08:08:55;15.05;;;13.45;;
76667;SDS011;65585;51.166;16.922;2023-06-22T08:11:22;13.65;;;11.82;;
76667;SDS011;65585;51.166;16.922;2023-06-22T08:13:51;13.45;;;12.05;;
76667;SDS011;65585;51.166;16.922;2023-06-22T08:16:17;13.02;;;11.77;;
76667;SDS011;65585;51.166;16.922;2023-06-22T08:18:43;15.15;;;13.30;;
76667;SDS011;65585;51.166;16.922;2023-06-22T08:21:09;13.98;;;12.05;;
76667;SDS011;65585;51.166;16.922;2023-06-22T08:23:37;14.43;;;12.93;;
76667;SDS011;65585;51.166;16.922;2023-06-22T08:26:03;14.05;;;12.55;;
76667;SDS011;65585;51.166;16.922;2023-06-22T08:28:29;13.45;;;12.15;;
76667;SDS011;65585;51.166;16.922;2023-06-22T08:30:56;15.23;;;13.68;;
76667;SDS011;65585;51.166;16.922;2023-06-22T08:33:22;13.50;;;12.10;;
76667;SDS011;65585;51.166;16.922;2023-06-22T08:35:54;13.68;;;12.00;;
76667;SDS011;65585;51.166;16.922;2023-06-22T08:38:21;12.73;;;11.43;;
76667;SDS011;65585;51.166;16.922;2023-06-22T08:40:47;14.10;;;12.65;;
76667;SDS011;65585;51.166;16.922;2023-06-22T08:43:13;13.10;;;11.13;;
76667;SDS011;65585;51.166;16.922;2023-06-22T08:45:40;13.20;;;11.80;;
76667;SDS011;65585;51.166;16.922;2023-06-22T08:48:06;11.60;;;10.45;;
76667;SDS011;65585;51.166;16.922;2023-06-22T08:50:32;12.65;;;11.05;;
76667;SDS011;65585;51.166;16.922;2023-06-22T08:52:58;12.98;;;11.68;;
76667;SDS011;65585;51.166;16.922;2023-06-22T08:55:24;12.00;;;10.80;;
76667;SDS011;65585;51.166;16.922;2023-06-22T08:57:50;12.45;;;11.20;;
76667;SDS011;65585;51.166;16.922;2023-06-22T09:00:16;11.65;;;10.30;;
76667;SDS011;65585;51.166;16.922;2023-06-22T09:02:46;13.15;;;11.80;;
76667;SDS011;65585;51.166;16.922;2023-06-22T09:05:12;13.82;;;10.65;;
76667;SDS011;65585;51.166;16.922;2023-06-22T09:07:39;12.85;;;11.55;;
76667;SDS011;65585;51.166;16.922;2023-06-22T09:10:05;12.77;;;11.57;;
76667;SDS011;65585;51.166;16.922;2023-06-22T09:12:32;11.73;;;10.63;;
76667;SDS011;65585;51.166;16.922;2023-06-22T09:14:59;12.02;;;10.75;;
76667;SDS011;65585;51.166;16.922;2023-06-22T09:17:26;12.00;;;10.23;;
76667;SDS011;65585;51.166;16.922;2023-06-22T09:19:52;11.43;;;10.18;;
76667;SDS011;65585;51.166;16.922;2023-06-22T09:22:19;11.18;;;10.07;;
76667;SDS011;65585;51.166;16.922;2023-06-22T09:24:45;11.98;;;10.77;;
76667;SDS011;65585;51.166;16.922;2023-06-22T09:27:12;12.63;;;10.27;;
76667;SDS011;65585;51.166;16.922;2023-06-22T09:29:37;12.02;;;10.93;;
76667;SDS011;65585;51.166;16.922;2023-06-22T09:32:04;11.27;;;10.18;;
76667;SDS011;65585;51.166;16.922;2023-06-22T09:34:30;11.55;;;10.35;;
76667;SDS011;65585;51.166;16.922;2023-06-22T09:36:57;12.75;;;11.45;;
76667;SDS011;65585;51.166;16.922;2023-06-22T09:39:25;12.65;;;10.57;;
76667;SDS011;65585;51.166;16.922;2023-06-22T09:41:52;11.55;;;10.52;;
76667;SDS011;65585;51.166;16.922;2023-06-22T09:44:18;13.90;;;10.52;;
76667;SDS011;65585;51.166;16.922;2023-06-22T09:46:44;11.48;;;10.38;;
76667;SDS011;65585;51.166;16.922;2023-06-22T09:49:10;11.50;;;10.40;;
76667;SDS011;65585;51.166;16.922;2023-06-22T09:51:36;11.98;;;10.75;;
76667;SDS011;65585;51.166;16.922;2023-06-22T09:54:02;12.13;;;10.93;;
76667;SDS011;65585;51.166;16.922;2023-06-22T09:56:29;11.70;;;10.50;;
76667;SDS011;65585;51.166;16.922;2023-06-22T09:58:55;11.98;;;10.68;;
76667;SDS011;65585;51.166;16.922;2023-06-22T10:01:22;12.45;;;10.45;;
76667;SDS011;65585;51.166;16.922;2023-06-22T10:03:48;11.63;;;10.43;;
76667;SDS011;65585;51.166;16.922;2023-06-22T10:06:14;12.27;;;10.88;;
76667;SDS011;65585;51.166;16.922;2023-06-22T10:08:40;11.30;;;9.75;;
76667;SDS011;65585;51.166;16.922;2023-06-22T10:11:06;12.25;;;10.60;;
76667;SDS011;65585;51.166;16.922;2023-06-22T10:13:32;13.63;;;11.18;;
76667;SDS011;65585;51.166;16.922;2023-06-22T10:15:58;13.98;;;11.95;;
76667;SDS011;65585;51.166;16.922;2023-06-22T10:18:24;11.32;;;10.02;;
76667;SDS011;65585;51.166;16.922;2023-06-22T10:20:51;12.43;;;11.20;;
76667;SDS011;65585;51.166;16.922;2023-06-22T10:23:17;12.93;;;11.63;;
76667;SDS011;65585;51.166;16.922;2023-06-22T10:25:44;12.20;;;11.00;;
76667;SDS011;65585;51.166;16.922;2023-06-22T10:28:10;12.35;;;11.15;;
76667;SDS011;65585;51.166;16.922;2023-06-22T10:30:38;11.43;;;10.07;;
76667;SDS011;65585;51.166;16.922;2023-06-22T10:33:07;12.23;;;11.07;;
76667;SDS011;65585;51.166;16.922;2023-06-22T10:35:37;11.48;;;10.40;;
76667;SDS011;65585;51.166;16.922;2023-06-22T10:38:03;13.70;;;11.00;;
76667;SDS011;65585;51.166;16.922;2023-06-22T10:42:55;10.77;;;9.77;;
76667;SDS011;65585;51.166;16.922;2023-06-22T10:45:22;10.98;;;9.88;;
76667;SDS011;65585;51.166;16.922;2023-06-22T10:47:48;11.73;;;10.63;;
76667;SDS011;65585;51.166;16.922;2023-06-22T10:50:14;10.98;;;9.88;;
76667;SDS011;65585;51.166;16.922;2023-06-22T10:52:40;10.50;;;9.50;;
76667;SDS011;65585;51.166;16.922;2023-06-22T10:55:10;11.20;;;10.10;;
76667;SDS011;65585;51.166;16.922;2023-06-22T10:57:36;11.43;;;10.45;;
76667;SDS011;65585;51.166;16.922;2023-06-22T11:00:05;10.98;;;9.98;;
76667;SDS011;65585;51.166;16.922;2023-06-22T11:02:32;10.68;;;9.68;;
76667;SDS011;65585;51.166;16.922;2023-06-22T11:04:58;9.95;;;8.90;;
76667;SDS011;65585;51.166;16.922;2023-06-22T11:07:26;10.50;;;8.63;;
76667;SDS011;65585;51.166;16.922;2023-06-22T11:09:54;10.18;;;8.93;;
76667;SDS011;65585;51.166;16.922;2023-06-22T11:12:20;9.85;;;8.93;;
76667;SDS011;65585;51.166;16.922;2023-06-22T11:14:47;9.40;;;8.52;;
76667;SDS011;65585;51.166;16.922;2023-06-22T11:17:15;8.95;;;8.15;;
76667;SDS011;65585;51.166;16.922;2023-06-22T11:19:42;8.70;;;7.90;;
76667;SDS011;65585;51.166;16.922;2023-06-22T11:22:08;8.95;;;8.15;;
76667;SDS011;65585;51.166;16.922;2023-06-22T11:24:34;8.18;;;7.47;;
76667;SDS011;65585;51.166;16.922;2023-06-22T11:27:00;9.02;;;8.23;;
76667;SDS011;65585;51.166;16.922;2023-06-22T11:29:27;7.38;;;6.68;;
76667;SDS011;65585;51.166;16.922;2023-06-22T11:34:19;10.70;;;7.82;;
76667;SDS011;65585;51.166;16.922;2023-06-22T11:36:45;8.00;;;7.20;;
76667;SDS011;65585;51.166;16.922;2023-06-22T11:39:13;8.02;;;7.32;;
76667;SDS011;65585;51.166;16.922;2023-06-22T11:41:40;8.57;;;7.80;;
76667;SDS011;65585;51.166;16.922;2023-06-22T11:44:07;9.43;;;8.23;;
76667;SDS011;65585;51.166;16.922;2023-06-22T11:46:33;8.35;;;7.55;;
76667;SDS011;65585;51.166;16.922;2023-06-22T11:49:01;8.57;;;7.78;;
76667;SDS011;65585;51.166;16.922;2023-06-22T11:53:53;8.85;;;7.65;;
76667;SDS011;65585;51.166;16.922;2023-06-22T11:56:20;7.28;;;6.57;;
76667;SDS011;65585;51.166;16.922;2023-06-22T11:58:46;7.93;;;7.13;;
76667;SDS011;65585;51.166;16.922;2023-06-22T12:01:12;7.15;;;6.53;;
76667;SDS011;65585;51.166;16.922;2023-06-22T12:03:41;7.75;;;7.05;;
76667;SDS011;65585;51.166;16.922;2023-06-22T12:06:09;8.50;;;7.55;;
76667;SDS011;65585;51.166;16.922;2023-06-22T12:08:35;7.18;;;6.47;;
76667;SDS011;65585;51.166;16.922;2023-06-22T12:11:01;7.25;;;6.55;;
76667;SDS011;65585;51.166;16.922;2023-06-22T12:13:28;7.25;;;5.57;;
76667;SDS011;65585;51.166;16.922;2023-06-22T12:15:54;10.27;;;6.75;;
76667;SDS011;65585;51.166;16.922;2023-06-22T12:18:21;6.95;;;6.18;;
76667;SDS011;65585;51.166;16.922;2023-06-22T12:20:47;7.45;;;6.82;;
76667;SDS011;65585;51.166;16.922;2023-06-22T12:23:14;7.60;;;6.90;;
76667;SDS011;65585;51.166;16.922;2023-06-22T12:25:40;7.28;;;6.57;;
76667;SDS011;65585;51.166;16.922;2023-06-22T12:28:06;8.68;;;6.55;;
76667;SDS011;65585;51.166;16.922;2023-06-22T12:30:32;7.80;;;7.10;;
76667;SDS011;65585;51.166;16.922;2023-06-22T12:32:59;7.65;;;6.85;;
76667;SDS011;65585;51.166;16.922;2023-06-22T12:35:25;7.28;;;6.57;;
76667;SDS011;65585;51.166;16.922;2023-06-22T12:37:51;8.02;;;7.32;;
76667;SDS011;65585;51.166;16.922;2023-06-22T12:40:18;7.53;;;6.88;;
76667;SDS011;65585;51.166;16.922;2023-06-22T12:42:44;7.60;;;6.72;;
76667;SDS011;65585;51.166;16.922;2023-06-22T12:45:11;7.75;;;7.05;;
76667;SDS011;65585;51.166;16.922;2023-06-22T12:47:37;7.88;;;7.13;;
76667;SDS011;65585;51.166;16.922;2023-06-22T12:50:03;9.02;;;7.40;;
76667;SDS011;65585;51.166;16.922;2023-06-22T12:52:30;7.78;;;7.07;;
76667;SDS011;65585;51.166;16.922;2023-06-22T12:55:00;8.23;;;7.43;;
76667;SDS011;65585;51.166;16.922;2023-06-22T12:59:52;7.75;;;7.05;;
76667;SDS011;65585;51.166;16.922;2023-06-22T13:02:19;7.25;;;6.55;;
76667;SDS011;65585;51.166;16.922;2023-06-22T13:04:45;8.85;;;7.82;;
76667;SDS011;65585;51.166;16.922;2023-06-22T13:07:11;7.35;;;6.65;;
76667;SDS011;65585;51.166;16.922;2023-06-22T13:09:37;8.13;;;7.05;;
76667;SDS011;65585;51.166;16.922;2023-06-22T13:14:30;7.90;;;7.20;;
76667;SDS011;65585;51.166;16.922;2023-06-22T13:16:56;9.20;;;7.53;;
76667;SDS011;65585;51.166;16.922;2023-06-22T13:19:22;9.20;;;7.72;;
76667;SDS011;65585;51.166;16.922;2023-06-22T13:21:48;8.45;;;7.60;;
76667;SDS011;65585;51.166;16.922;2023-06-22T13:26:42;8.05;;;7.35;;
76667;SDS011;65585;51.166;16.922;2023-06-22T13:29:08;11.10;;;7.75;;
76667;SDS011;65585;51.166;16.922;2023-06-22T13:31:34;9.90;;;8.07;;
76667;SDS011;65585;51.166;16.922;2023-06-22T13:34:00;8.30;;;7.50;;
76667;SDS011;65585;51.166;16.922;2023-06-22T13:36:26;8.60;;;7.80;;
76667;SDS011;65585;51.166;16.922;2023-06-22T13:38:56;7.95;;;7.25;;
76667;SDS011;65585;51.166;16.922;2023-06-22T13:41:22;8.57;;;7.80;;
76667;SDS011;65585;51.166;16.922;2023-06-22T13:43:48;9.15;;;8.25;;
76667;SDS011;65585;51.166;16.922;2023-06-22T13:46:14;8.95;;;8.02;;
76667;SDS011;65585;51.166;16.922;2023-06-22T13:48:40;8.82;;;8.00;;
76667;SDS011;65585;51.166;16.922;2023-06-22T13:51:07;8.93;;;7.53;;
76667;SDS011;65585;51.166;16.922;2023-06-22T13:53:33;8.30;;;7.50;;
76667;SDS011;65585;51.166;16.922;2023-06-22T13:55:59;8.85;;;8.02;;
76667;SDS011;65585;51.166;16.922;2023-06-22T13:58:25;8.25;;;7.45;;
76667;SDS011;65585;51.166;16.922;2023-06-22T14:00:51;8.32;;;7.53;;
76667;SDS011;65585;51.166;16.922;2023-06-22T14:03:17;8.30;;;7.53;;
76667;SDS011;65585;51.166;16.922;2023-06-22T14:05:43;8.35;;;7.65;;
76667;SDS011;65585;51.166;16.922;2023-06-22T14:08:09;11.88;;;8.60;;
76667;SDS011;65585;51.166;16.922;2023-06-22T14:10:36;9.20;;;7.57;;
76667;SDS011;65585;51.166;16.922;2023-06-22T14:13:02;8.52;;;7.65;;
76667;SDS011;65585;51.166;16.922;2023-06-22T14:15:32;8.52;;;7.70;;
76667;SDS011;65585;51.166;16.922;2023-06-22T14:17:58;8.52;;;7.72;;
76667;SDS011;65585;51.166;16.922;2023-06-22T14:20:32;8.05;;;7.22;;
76667;SDS011;65585;51.166;16.922;2023-06-22T14:23:05;8.50;;;7.80;;
76667;SDS011;65585;51.166;16.922;2023-06-22T14:25:31;9.38;;;8.40;;
76667;SDS011;65585;51.166;16.922;2023-06-22T14:27:57;8.10;;;7.35;;
76667;SDS011;65585;51.166;16.922;2023-06-22T14:30:23;9.27;;;8.27;;
76667;SDS011;65585;51.166;16.922;2023-06-22T14:32:49;8.80;;;7.70;;
76667;SDS011;65585;51.166;16.922;2023-06-22T14:35:15;8.00;;;7.20;;
76667;SDS011;65585;51.166;16.922;2023-06-22T14:37:41;8.30;;;7.60;;
76667;SDS011;65585;51.166;16.922;2023-06-22T14:40:08;8.93;;;8.13;;
76667;SDS011;65585;51.166;16.922;2023-06-22T14:42:34;8.25;;;7.45;;
76667;SDS011;65585;51.166;16.922;2023-06-22T14:45:01;8.23;;;7.43;;
76667;SDS011;65585;51.166;16.922;2023-06-22T14:47:27;7.82;;;7.13;;
76667;SDS011;65585;51.166;16.922;2023-06-22T14:49:54;8.18;;;7.47;;
76667;SDS011;65585;51.166;16.922;2023-06-22T14:52:20;8.05;;;7.35;;